sensor_id;sensor_type;location;lat;lon;timestamp;temperature;humidity
18597;DHT22;9428;50.950;6.912;2022-07-05T00:01:10;18.80;99.90
18597;DHT22;9428;50.950;6.912;2022-07-05T00:03:58;18.70;99.90
18597;DHT22;9428;50.950;6.912;2022-07-05T00:06:46;18.70;99.90
18597;DHT22;9428;50.950;6.912;2022-07-05T00:09:53;18.60;99.90
18597;DHT22;9428;50.950;6.912;2022-07-05T00:12:40;18.50;99.90
18597;DHT22;9428;50.950;6.912;2022-07-05T00:15:28;18.40;99.90
18597;DHT22;9428;50.950;6.912;2022-07-05T00:18:15;18.50;99.90
18597;DHT22;9428;50.950;6.912;2022-07-05T00:21:02;18.40;99.90
18597;DHT22;9428;50.950;6.912;2022-07-05T00:23:51;18.30;99.90
18597;DHT22;9428;50.950;6.912;2022-07-05T00:26:38;18.30;99.90
18597;DHT22;9428;50.950;6.912;2022-07-05T00:29:26;18.40;99.90
18597;DHT22;9428;50.950;6.912;2022-07-05T00:32:13;18.40;99.90
18597;DHT22;9428;50.950;6.912;2022-07-05T00:35:00;18.20;99.90
18597;DHT22;9428;50.950;6.912;2022-07-05T00:37:47;18.20;99.90
18597;DHT22;9428;50.950;6.912;2022-07-05T00:40:36;18.20;99.90
18597;DHT22;9428;50.950;6.912;2022-07-05T00:43:23;18.20;99.90
18597;DHT22;9428;50.950;6.912;2022-07-05T00:46:11;18.20;99.90
18597;DHT22;9428;50.950;6.912;2022-07-05T00:48:59;18.10;99.90
18597;DHT22;9428;50.950;6.912;2022-07-05T00:51:46;18.10;99.90
18597;DHT22;9428;50.950;6.912;2022-07-05T00:54:35;18.00;99.90
18597;DHT22;9428;50.950;6.912;2022-07-05T00:57:24;18.10;99.90
18597;DHT22;9428;50.950;6.912;2022-07-05T01:00:12;17.90;99.90
18597;DHT22;9428;50.950;6.912;2022-07-05T01:02:59;18.00;99.90
18597;DHT22;9428;50.950;6.912;2022-07-05T01:05:47;18.00;99.90
18597;DHT22;9428;50.950;6.912;2022-07-05T01:08:37;18.10;99.90
18597;DHT22;9428;50.950;6.912;2022-07-05T01:11:24;17.90;99.90
18597;DHT22;9428;50.950;6.912;2022-07-05T01:14:16;17.90;99.90
18597;DHT22;9428;50.950;6.912;2022-07-05T01:17:04;17.80;99.90
18597;DHT22;9428;50.950;6.912;2022-07-05T01:19:51;17.80;99.90
18597;DHT22;9428;50.950;6.912;2022-07-05T01:22:54;17.90;99.90
18597;DHT22;9428;50.950;6.912;2022-07-05T01:25:42;18.00;99.90
18597;DHT22;9428;50.950;6.912;2022-07-05T01:28:29;17.90;99.90
18597;DHT22;9428;50.950;6.912;2022-07-05T01:31:16;18.00;99.90
18597;DHT22;9428;50.950;6.912;2022-07-05T01:34:04;18.00;99.90
18597;DHT22;9428;50.950;6.912;2022-07-05T01:36:51;17.80;99.90
18597;DHT22;9428;50.950;6.912;2022-07-05T01:39:40;17.80;99.90
18597;DHT22;9428;50.950;6.912;2022-07-05T01:42:27;17.90;99.90
18597;DHT22;9428;50.950;6.912;2022-07-05T01:45:14;17.80;99.90
18597;DHT22;9428;50.950;6.912;2022-07-05T01:48:22;17.80;99.90
18597;DHT22;9428;50.950;6.912;2022-07-05T01:51:15;17.90;99.90
18597;DHT22;9428;50.950;6.912;2022-07-05T01:54:05;17.90;99.90
18597;DHT22;9428;50.950;6.912;2022-07-05T01:56:53;17.80;99.90
18597;DHT22;9428;50.950;6.912;2022-07-05T01:59:41;17.60;99.90
18597;DHT22;9428;50.950;6.912;2022-07-05T02:02:28;17.60;99.90
18597;DHT22;9428;50.950;6.912;2022-07-05T02:05:15;17.50;99.90
18597;DHT22;9428;50.950;6.912;2022-07-05T02:08:03;17.50;99.90
18597;DHT22;9428;50.950;6.912;2022-07-05T02:10:50;17.50;99.90
18597;DHT22;9428;50.950;6.912;2022-07-05T02:13:39;17.30;99.90
18597;DHT22;9428;50.950;6.912;2022-07-05T02:16:27;17.60;99.90
18597;DHT22;9428;50.950;6.912;2022-07-05T02:19:15;17.60;99.90
18597;DHT22;9428;50.950;6.912;2022-07-05T02:22:02;17.50;99.90
18597;DHT22;9428;50.950;6.912;2022-07-05T02:24:50;17.50;99.90
18597;DHT22;9428;50.950;6.912;2022-07-05T02:27:37;17.40;99.90
18597;DHT22;9428;50.950;6.912;2022-07-05T02:30:25;17.50;99.90
18597;DHT22;9428;50.950;6.912;2022-07-05T02:33:12;17.20;99.90
18597;DHT22;9428;50.950;6.912;2022-07-05T02:36:05;17.40;99.90
18597;DHT22;9428;50.950;6.912;2022-07-05T02:38:54;17.30;99.90
18597;DHT22;9428;50.950;6.912;2022-07-05T02:41:41;17.10;99.90
18597;DHT22;9428;50.950;6.912;2022-07-05T02:44:28;17.30;99.90
18597;DHT22;9428;50.950;6.912;2022-07-05T02:47:17;17.40;99.90
18597;DHT22;9428;50.950;6.912;2022-07-05T02:50:05;17.60;99.90
18597;DHT22;9428;50.950;6.912;2022-07-05T02:52:53;17.40;99.90
18597;DHT22;9428;50.950;6.912;2022-07-05T02:55:40;17.40;99.90
18597;DHT22;9428;50.950;6.912;2022-07-05T02:58:27;17.20;99.90
18597;DHT22;9428;50.950;6.912;2022-07-05T03:01:14;17.20;99.90
18597;DHT22;9428;50.950;6.912;2022-07-05T03:04:03;17.50;99.90
18597;DHT22;9428;50.950;6.912;2022-07-05T03:06:52;17.70;99.90
18597;DHT22;9428;50.950;6.912;2022-07-05T03:09:39;17.60;99.90
18597;DHT22;9428;50.950;6.912;2022-07-05T03:12:26;17.60;99.90
18597;DHT22;9428;50.950;6.912;2022-07-05T03:15:13;17.50;99.90
18597;DHT22;9428;50.950;6.912;2022-07-05T03:18:01;17.10;99.90
18597;DHT22;9428;50.950;6.912;2022-07-05T03:20:49;17.20;99.90
18597;DHT22;9428;50.950;6.912;2022-07-05T03:23:36;17.30;99.90
18597;DHT22;9428;50.950;6.912;2022-07-05T03:26:24;17.40;99.90
18597;DHT22;9428;50.950;6.912;2022-07-05T03:29:11;17.30;99.90
18597;DHT22;9428;50.950;6.912;2022-07-05T03:31:58;17.30;99.90
18597;DHT22;9428;50.950;6.912;2022-07-05T03:34:45;17.20;99.90
18597;DHT22;9428;50.950;6.912;2022-07-05T03:37:34;17.30;99.90
18597;DHT22;9428;50.950;6.912;2022-07-05T03:40:21;17.30;99.90
18597;DHT22;9428;50.950;6.912;2022-07-05T03:43:08;17.20;99.90
18597;DHT22;9428;50.950;6.912;2022-07-05T03:45:55;17.20;99.90
18597;DHT22;9428;50.950;6.912;2022-07-05T03:48:43;17.50;99.90
18597;DHT22;9428;50.950;6.912;2022-07-05T03:51:30;17.20;99.90
18597;DHT22;9428;50.950;6.912;2022-07-05T03:54:18;17.20;99.90
18597;DHT22;9428;50.950;6.912;2022-07-05T03:57:06;17.00;99.90
18597;DHT22;9428;50.950;6.912;2022-07-05T03:59:53;17.60;99.90
18597;DHT22;9428;50.950;6.912;2022-07-05T04:02:40;17.10;99.90
18597;DHT22;9428;50.950;6.912;2022-07-05T04:05:28;17.10;99.90
18597;DHT22;9428;50.950;6.912;2022-07-05T04:08:15;17.20;99.90
18597;DHT22;9428;50.950;6.912;2022-07-05T04:11:03;17.10;99.90
18597;DHT22;9428;50.950;6.912;2022-07-05T04:13:51;17.00;99.90
18597;DHT22;9428;50.950;6.912;2022-07-05T04:16:38;17.10;99.90
18597;DHT22;9428;50.950;6.912;2022-07-05T04:19:26;17.20;99.90
18597;DHT22;9428;50.950;6.912;2022-07-05T04:22:13;16.90;99.90
18597;DHT22;9428;50.950;6.912;2022-07-05T04:25:00;17.00;99.90
18597;DHT22;9428;50.950;6.912;2022-07-05T04:28:07;17.10;99.90
18597;DHT22;9428;50.950;6.912;2022-07-05T04:30:55;17.10;99.90
18597;DHT22;9428;50.950;6.912;2022-07-05T04:33:42;17.10;99.90
18597;DHT22;9428;50.950;6.912;2022-07-05T04:36:29;17.10;99.90
18597;DHT22;9428;50.950;6.912;2022-07-05T04:39:17;17.10;99.90
18597;DHT22;9428;50.950;6.912;2022-07-05T04:42:06;17.30;99.90
18597;DHT22;9428;50.950;6.912;2022-07-05T04:44:54;17.20;99.90
18597;DHT22;9428;50.950;6.912;2022-07-05T04:47:41;17.10;99.90
18597;DHT22;9428;50.950;6.912;2022-07-05T04:50:29;17.20;99.90
18597;DHT22;9428;50.950;6.912;2022-07-05T04:53:16;17.30;99.90
18597;DHT22;9428;50.950;6.912;2022-07-05T04:56:04;17.20;99.90
18597;DHT22;9428;50.950;6.912;2022-07-05T04:58:52;17.40;99.90
18597;DHT22;9428;50.950;6.912;2022-07-05T05:01:40;17.30;99.90
18597;DHT22;9428;50.950;6.912;2022-07-05T05:04:28;17.50;99.90
18597;DHT22;9428;50.950;6.912;2022-07-05T05:07:15;17.50;99.90
18597;DHT22;9428;50.950;6.912;2022-07-05T05:10:05;17.50;99.90
18597;DHT22;9428;50.950;6.912;2022-07-05T05:12:52;17.40;99.90
18597;DHT22;9428;50.950;6.912;2022-07-05T05:15:40;17.60;99.90
18597;DHT22;9428;50.950;6.912;2022-07-05T05:18:28;17.70;99.90
18597;DHT22;9428;50.950;6.912;2022-07-05T05:21:16;17.80;99.90
18597;DHT22;9428;50.950;6.912;2022-07-05T05:24:04;17.80;99.90
18597;DHT22;9428;50.950;6.912;2022-07-05T05:26:51;17.90;99.90
18597;DHT22;9428;50.950;6.912;2022-07-05T05:29:38;17.90;99.90
18597;DHT22;9428;50.950;6.912;2022-07-05T05:32:26;17.90;99.90
18597;DHT22;9428;50.950;6.912;2022-07-05T05:35:14;17.80;99.90
18597;DHT22;9428;50.950;6.912;2022-07-05T05:38:06;17.80;99.90
18597;DHT22;9428;50.950;6.912;2022-07-05T05:40:53;17.80;99.90
18597;DHT22;9428;50.950;6.912;2022-07-05T05:43:40;17.90;99.90
18597;DHT22;9428;50.950;6.912;2022-07-05T05:46:28;17.90;99.90
18597;DHT22;9428;50.950;6.912;2022-07-05T05:49:15;18.00;99.90
18597;DHT22;9428;50.950;6.912;2022-07-05T05:52:04;18.00;99.90
18597;DHT22;9428;50.950;6.912;2022-07-05T05:54:51;18.20;99.90
18597;DHT22;9428;50.950;6.912;2022-07-05T05:57:38;18.10;99.90
18597;DHT22;9428;50.950;6.912;2022-07-05T06:00:25;18.20;99.90
18597;DHT22;9428;50.950;6.912;2022-07-05T06:03:13;18.30;99.90
18597;DHT22;9428;50.950;6.912;2022-07-05T06:06:00;18.30;99.90
18597;DHT22;9428;50.950;6.912;2022-07-05T06:08:49;18.50;99.90
18597;DHT22;9428;50.950;6.912;2022-07-05T06:11:36;18.50;99.90
18597;DHT22;9428;50.950;6.912;2022-07-05T06:14:23;18.50;99.90
18597;DHT22;9428;50.950;6.912;2022-07-05T06:17:10;18.40;99.90
18597;DHT22;9428;50.950;6.912;2022-07-05T06:19:57;18.50;99.90
18597;DHT22;9428;50.950;6.912;2022-07-05T06:22:45;18.50;99.90
18597;DHT22;9428;50.950;6.912;2022-07-05T06:25:34;18.60;99.90
18597;DHT22;9428;50.950;6.912;2022-07-05T06:28:22;18.60;99.90
18597;DHT22;9428;50.950;6.912;2022-07-05T06:31:09;18.80;99.90
18597;DHT22;9428;50.950;6.912;2022-07-05T06:33:56;18.80;99.90
18597;DHT22;9428;50.950;6.912;2022-07-05T06:36:44;19.00;99.90
18597;DHT22;9428;50.950;6.912;2022-07-05T06:39:31;19.10;99.90
18597;DHT22;9428;50.950;6.912;2022-07-05T06:42:20;19.10;99.90
18597;DHT22;9428;50.950;6.912;2022-07-05T06:45:09;19.10;99.90
18597;DHT22;9428;50.950;6.912;2022-07-05T06:47:57;19.10;99.90
18597;DHT22;9428;50.950;6.912;2022-07-05T06:50:45;19.00;99.90
18597;DHT22;9428;50.950;6.912;2022-07-05T06:53:32;19.10;99.90
18597;DHT22;9428;50.950;6.912;2022-07-05T06:56:19;19.10;99.90
18597;DHT22;9428;50.950;6.912;2022-07-05T06:59:08;19.20;99.90
18597;DHT22;9428;50.950;6.912;2022-07-05T07:01:55;19.10;99.90
18597;DHT22;9428;50.950;6.912;2022-07-05T07:04:42;19.20;99.90
18597;DHT22;9428;50.950;6.912;2022-07-05T07:07:30;19.20;99.90
18597;DHT22;9428;50.950;6.912;2022-07-05T07:10:35;19.40;99.90
18597;DHT22;9428;50.950;6.912;2022-07-05T07:13:22;19.50;99.90
18597;DHT22;9428;50.950;6.912;2022-07-05T07:16:11;19.60;99.90
18597;DHT22;9428;50.950;6.912;2022-07-05T07:18:58;19.60;99.90
18597;DHT22;9428;50.950;6.912;2022-07-05T07:21:45;19.70;99.90
18597;DHT22;9428;50.950;6.912;2022-07-05T07:24:32;19.70;99.90
18597;DHT22;9428;50.950;6.912;2022-07-05T07:27:20;19.70;99.90
18597;DHT22;9428;50.950;6.912;2022-07-05T07:30:08;19.60;99.90
18597;DHT22;9428;50.950;6.912;2022-07-05T07:32:57;19.60;99.90
18597;DHT22;9428;50.950;6.912;2022-07-05T07:35:45;19.70;99.90
18597;DHT22;9428;50.950;6.912;2022-07-05T07:38:32;19.80;99.90
18597;DHT22;9428;50.950;6.912;2022-07-05T07:41:19;19.70;99.90
18597;DHT22;9428;50.950;6.912;2022-07-05T07:44:07;19.80;99.90
18597;DHT22;9428;50.950;6.912;2022-07-05T07:46:54;19.80;99.90
18597;DHT22;9428;50.950;6.912;2022-07-05T07:49:42;19.90;99.90
18597;DHT22;9428;50.950;6.912;2022-07-05T07:52:30;19.90;99.90
18597;DHT22;9428;50.950;6.912;2022-07-05T07:55:19;20.00;99.90
18597;DHT22;9428;50.950;6.912;2022-07-05T07:58:06;20.00;99.90
18597;DHT22;9428;50.950;6.912;2022-07-05T08:00:54;20.00;99.90
18597;DHT22;9428;50.950;6.912;2022-07-05T08:03:41;20.10;99.90
18597;DHT22;9428;50.950;6.912;2022-07-05T08:06:30;20.10;99.90
18597;DHT22;9428;50.950;6.912;2022-07-05T08:09:17;20.10;99.90
18597;DHT22;9428;50.950;6.912;2022-07-05T08:12:06;20.10;99.90
18597;DHT22;9428;50.950;6.912;2022-07-05T08:14:53;20.20;99.90
18597;DHT22;9428;50.950;6.912;2022-07-05T08:17:40;20.10;99.90
18597;DHT22;9428;50.950;6.912;2022-07-05T08:20:48;20.10;99.90
18597;DHT22;9428;50.950;6.912;2022-07-05T08:23:54;20.20;99.90
18597;DHT22;9428;50.950;6.912;2022-07-05T08:26:41;20.30;99.90
18597;DHT22;9428;50.950;6.912;2022-07-05T08:29:29;20.50;99.90
18597;DHT22;9428;50.950;6.912;2022-07-05T08:32:17;20.30;99.90
18597;DHT22;9428;50.950;6.912;2022-07-05T08:35:05;20.40;99.90
18597;DHT22;9428;50.950;6.912;2022-07-05T08:37:52;20.60;99.90
18597;DHT22;9428;50.950;6.912;2022-07-05T08:40:45;20.60;99.90
18597;DHT22;9428;50.950;6.912;2022-07-05T08:43:33;20.50;99.90
18597;DHT22;9428;50.950;6.912;2022-07-05T08:46:23;20.40;99.90
18597;DHT22;9428;50.950;6.912;2022-07-05T08:49:13;20.40;99.90
18597;DHT22;9428;50.950;6.912;2022-07-05T08:52:02;20.60;99.90
18597;DHT22;9428;50.950;6.912;2022-07-05T08:54:51;20.80;99.90
18597;DHT22;9428;50.950;6.912;2022-07-05T08:57:40;20.60;99.90
18597;DHT22;9428;50.950;6.912;2022-07-05T09:00:28;20.50;99.90
18597;DHT22;9428;50.950;6.912;2022-07-05T09:03:16;20.50;99.90
18597;DHT22;9428;50.950;6.912;2022-07-05T09:06:08;20.50;99.90
18597;DHT22;9428;50.950;6.912;2022-07-05T09:08:56;20.70;99.90
18597;DHT22;9428;50.950;6.912;2022-07-05T09:11:45;20.80;99.90
18597;DHT22;9428;50.950;6.912;2022-07-05T09:14:34;20.80;99.90
18597;DHT22;9428;50.950;6.912;2022-07-05T09:17:22;20.90;99.90
18597;DHT22;9428;50.950;6.912;2022-07-05T09:20:13;21.00;99.90
18597;DHT22;9428;50.950;6.912;2022-07-05T09:23:00;21.10;99.90
18597;DHT22;9428;50.950;6.912;2022-07-05T09:25:47;21.00;99.90
18597;DHT22;9428;50.950;6.912;2022-07-05T09:28:35;21.00;99.90
18597;DHT22;9428;50.950;6.912;2022-07-05T09:31:28;20.90;99.90
18597;DHT22;9428;50.950;6.912;2022-07-05T09:34:16;21.00;99.90
18597;DHT22;9428;50.950;6.912;2022-07-05T09:37:04;21.30;99.90
18597;DHT22;9428;50.950;6.912;2022-07-05T09:39:52;21.50;99.90
18597;DHT22;9428;50.950;6.912;2022-07-05T09:42:40;21.50;99.90
18597;DHT22;9428;50.950;6.912;2022-07-05T09:45:27;21.60;99.90
18597;DHT22;9428;50.950;6.912;2022-07-05T09:48:16;21.60;99.90
18597;DHT22;9428;50.950;6.912;2022-07-05T09:51:08;21.60;99.90
18597;DHT22;9428;50.950;6.912;2022-07-05T09:53:57;21.70;99.90
18597;DHT22;9428;50.950;6.912;2022-07-05T09:56:46;21.70;99.90
18597;DHT22;9428;50.950;6.912;2022-07-05T09:59:34;21.90;99.90
18597;DHT22;9428;50.950;6.912;2022-07-05T10:02:34;22.00;99.90
18597;DHT22;9428;50.950;6.912;2022-07-05T10:05:24;21.80;99.90
18597;DHT22;9428;50.950;6.912;2022-07-05T10:08:12;22.20;99.90
18597;DHT22;9428;50.950;6.912;2022-07-05T10:11:00;22.40;99.90
18597;DHT22;9428;50.950;6.912;2022-07-05T10:13:48;22.10;99.90
18597;DHT22;9428;50.950;6.912;2022-07-05T10:16:36;21.80;99.90
18597;DHT22;9428;50.950;6.912;2022-07-05T10:19:25;21.80;99.90
18597;DHT22;9428;50.950;6.912;2022-07-05T10:22:16;21.90;99.90
18597;DHT22;9428;50.950;6.912;2022-07-05T10:25:05;21.80;99.90
18597;DHT22;9428;50.950;6.912;2022-07-05T10:27:53;21.60;99.90
18597;DHT22;9428;50.950;6.912;2022-07-05T10:30:44;21.50;99.90
18597;DHT22;9428;50.950;6.912;2022-07-05T10:33:32;21.70;99.90
18597;DHT22;9428;50.950;6.912;2022-07-05T10:36:20;21.90;99.90
18597;DHT22;9428;50.950;6.912;2022-07-05T10:39:09;22.00;99.90
18597;DHT22;9428;50.950;6.912;2022-07-05T10:41:58;21.90;99.90
18597;DHT22;9428;50.950;6.912;2022-07-05T10:44:45;21.90;99.90
18597;DHT22;9428;50.950;6.912;2022-07-05T10:47:32;21.80;99.90
18597;DHT22;9428;50.950;6.912;2022-07-05T10:50:22;21.90;99.90
18597;DHT22;9428;50.950;6.912;2022-07-05T10:53:09;21.80;99.90
18597;DHT22;9428;50.950;6.912;2022-07-05T10:56:10;21.80;99.90
18597;DHT22;9428;50.950;6.912;2022-07-05T10:59:06;22.00;99.90
18597;DHT22;9428;50.950;6.912;2022-07-05T11:02:12;22.00;99.90
18597;DHT22;9428;50.950;6.912;2022-07-05T11:04:59;22.10;99.90
18597;DHT22;9428;50.950;6.912;2022-07-05T11:07:59;22.40;99.90
18597;DHT22;9428;50.950;6.912;2022-07-05T11:11:09;22.10;99.90
18597;DHT22;9428;50.950;6.912;2022-07-05T11:13:57;22.20;99.90
18597;DHT22;9428;50.950;6.912;2022-07-05T11:16:45;22.10;99.90
18597;DHT22;9428;50.950;6.912;2022-07-05T11:19:32;22.20;99.90
18597;DHT22;9428;50.950;6.912;2022-07-05T11:22:19;22.00;99.90
18597;DHT22;9428;50.950;6.912;2022-07-05T11:25:09;22.10;99.90
18597;DHT22;9428;50.950;6.912;2022-07-05T11:28:06;22.10;99.90
18597;DHT22;9428;50.950;6.912;2022-07-05T11:30:55;21.80;99.90
18597;DHT22;9428;50.950;6.912;2022-07-05T11:33:43;21.70;99.90
18597;DHT22;9428;50.950;6.912;2022-07-05T11:36:30;21.70;99.90
18597;DHT22;9428;50.950;6.912;2022-07-05T11:39:18;21.80;99.90
18597;DHT22;9428;50.950;6.912;2022-07-05T11:42:08;21.80;99.90
18597;DHT22;9428;50.950;6.912;2022-07-05T11:44:57;21.80;99.90
18597;DHT22;9428;50.950;6.912;2022-07-05T11:47:45;21.80;99.90
18597;DHT22;9428;50.950;6.912;2022-07-05T11:50:33;22.00;99.90
18597;DHT22;9428;50.950;6.912;2022-07-05T11:53:27;22.30;99.90
18597;DHT22;9428;50.950;6.912;2022-07-05T11:56:14;22.00;99.90
18597;DHT22;9428;50.950;6.912;2022-07-05T11:59:16;21.80;99.90
18597;DHT22;9428;50.950;6.912;2022-07-05T12:02:05;22.00;99.90
18597;DHT22;9428;50.950;6.912;2022-07-05T12:04:54;22.10;99.90
18597;DHT22;9428;50.950;6.912;2022-07-05T12:07:48;22.30;99.90
18597;DHT22;9428;50.950;6.912;2022-07-05T12:10:36;22.30;99.90
18597;DHT22;9428;50.950;6.912;2022-07-05T12:13:46;22.00;99.90
18597;DHT22;9428;50.950;6.912;2022-07-05T12:16:33;22.10;99.90
18597;DHT22;9428;50.950;6.912;2022-07-05T12:19:26;22.30;99.90
18597;DHT22;9428;50.950;6.912;2022-07-05T12:22:13;22.50;99.90
18597;DHT22;9428;50.950;6.912;2022-07-05T12:25:02;22.50;99.90
18597;DHT22;9428;50.950;6.912;2022-07-05T12:27:52;22.60;99.90
18597;DHT22;9428;50.950;6.912;2022-07-05T12:30:40;22.90;99.90
18597;DHT22;9428;50.950;6.912;2022-07-05T12:33:27;22.80;99.90
18597;DHT22;9428;50.950;6.912;2022-07-05T12:36:17;22.60;99.90
18597;DHT22;9428;50.950;6.912;2022-07-05T12:39:04;22.40;99.90
18597;DHT22;9428;50.950;6.912;2022-07-05T12:41:52;22.20;99.90
18597;DHT22;9428;50.950;6.912;2022-07-05T12:44:39;22.40;99.90
18597;DHT22;9428;50.950;6.912;2022-07-05T12:47:26;22.70;99.90
18597;DHT22;9428;50.950;6.912;2022-07-05T12:50:14;22.90;99.90
18597;DHT22;9428;50.950;6.912;2022-07-05T12:53:04;23.10;99.90
18597;DHT22;9428;50.950;6.912;2022-07-05T12:56:11;23.00;99.90
18597;DHT22;9428;50.950;6.912;2022-07-05T12:59:16;23.00;99.90
18597;DHT22;9428;50.950;6.912;2022-07-05T13:02:04;22.70;99.90
18597;DHT22;9428;50.950;6.912;2022-07-05T13:04:52;22.40;99.90
18597;DHT22;9428;50.950;6.912;2022-07-05T13:07:43;22.40;99.90
18597;DHT22;9428;50.950;6.912;2022-07-05T13:10:32;22.30;99.90
18597;DHT22;9428;50.950;6.912;2022-07-05T13:13:19;22.30;99.90
18597;DHT22;9428;50.950;6.912;2022-07-05T13:16:06;22.50;99.90
18597;DHT22;9428;50.950;6.912;2022-07-05T13:18:54;22.50;99.90
18597;DHT22;9428;50.950;6.912;2022-07-05T13:21:41;22.50;99.90
18597;DHT22;9428;50.950;6.912;2022-07-05T13:24:28;22.70;99.90
18597;DHT22;9428;50.950;6.912;2022-07-05T13:27:17;22.80;99.90
18597;DHT22;9428;50.950;6.912;2022-07-05T13:30:05;22.70;99.90
18597;DHT22;9428;50.950;6.912;2022-07-05T13:32:52;22.60;99.90
18597;DHT22;9428;50.950;6.912;2022-07-05T13:35:40;22.70;99.90
18597;DHT22;9428;50.950;6.912;2022-07-05T13:38:27;22.30;99.90
18597;DHT22;9428;50.950;6.912;2022-07-05T13:41:14;22.40;99.90
18597;DHT22;9428;50.950;6.912;2022-07-05T13:44:03;22.70;99.90
18597;DHT22;9428;50.950;6.912;2022-07-05T13:46:50;22.80;99.90
18597;DHT22;9428;50.950;6.912;2022-07-05T13:49:38;22.90;99.90
18597;DHT22;9428;50.950;6.912;2022-07-05T13:52:26;22.60;99.90
18597;DHT22;9428;50.950;6.912;2022-07-05T13:55:13;22.60;99.90
18597;DHT22;9428;50.950;6.912;2022-07-05T13:58:00;23.00;99.90
18597;DHT22;9428;50.950;6.912;2022-07-05T14:00:49;23.10;99.90
18597;DHT22;9428;50.950;6.912;2022-07-05T14:03:36;23.10;99.90
18597;DHT22;9428;50.950;6.912;2022-07-05T14:06:24;22.90;99.90
18597;DHT22;9428;50.950;6.912;2022-07-05T14:09:11;22.80;99.90
18597;DHT22;9428;50.950;6.912;2022-07-05T14:11:58;22.80;99.90
18597;DHT22;9428;50.950;6.912;2022-07-05T14:14:45;22.80;99.90
18597;DHT22;9428;50.950;6.912;2022-07-05T14:17:34;22.80;99.90
18597;DHT22;9428;50.950;6.912;2022-07-05T14:20:21;22.60;99.90
18597;DHT22;9428;50.950;6.912;2022-07-05T14:23:09;22.80;99.90
18597;DHT22;9428;50.950;6.912;2022-07-05T14:25:57;22.90;99.90
18597;DHT22;9428;50.950;6.912;2022-07-05T14:28:45;22.70;99.90
18597;DHT22;9428;50.950;6.912;2022-07-05T14:31:32;22.80;99.90
18597;DHT22;9428;50.950;6.912;2022-07-05T14:34:20;22.80;99.90
18597;DHT22;9428;50.950;6.912;2022-07-05T14:37:07;22.80;99.90
18597;DHT22;9428;50.950;6.912;2022-07-05T14:39:55;22.80;99.90
18597;DHT22;9428;50.950;6.912;2022-07-05T14:42:42;22.90;99.90
18597;DHT22;9428;50.950;6.912;2022-07-05T14:45:29;22.90;99.90
18597;DHT22;9428;50.950;6.912;2022-07-05T14:48:16;23.00;99.90
18597;DHT22;9428;50.950;6.912;2022-07-05T14:51:05;22.90;99.90
18597;DHT22;9428;50.950;6.912;2022-07-05T14:53:52;22.90;99.90
18597;DHT22;9428;50.950;6.912;2022-07-05T14:56:40;23.00;99.90
18597;DHT22;9428;50.950;6.912;2022-07-05T14:59:27;23.30;99.90
18597;DHT22;9428;50.950;6.912;2022-07-05T15:02:14;23.60;99.90
18597;DHT22;9428;50.950;6.912;2022-07-05T15:05:02;23.60;99.90
18597;DHT22;9428;50.950;6.912;2022-07-05T15:07:51;23.50;99.90
18597;DHT22;9428;50.950;6.912;2022-07-05T15:10:38;23.40;99.90
18597;DHT22;9428;50.950;6.912;2022-07-05T15:13:25;23.40;99.90
18597;DHT22;9428;50.950;6.912;2022-07-05T15:16:12;23.50;99.90
18597;DHT22;9428;50.950;6.912;2022-07-05T15:18:59;23.50;99.90
18597;DHT22;9428;50.950;6.912;2022-07-05T15:21:47;23.60;99.90
18597;DHT22;9428;50.950;6.912;2022-07-05T15:24:36;23.70;99.90
18597;DHT22;9428;50.950;6.912;2022-07-05T15:27:23;23.80;99.90
18597;DHT22;9428;50.950;6.912;2022-07-05T15:30:12;23.80;99.90
18597;DHT22;9428;50.950;6.912;2022-07-05T15:33:01;24.00;99.90
18597;DHT22;9428;50.950;6.912;2022-07-05T15:35:49;24.10;99.90
18597;DHT22;9428;50.950;6.912;2022-07-05T15:38:38;24.00;99.90
18597;DHT22;9428;50.950;6.912;2022-07-05T15:41:27;23.70;99.90
18597;DHT22;9428;50.950;6.912;2022-07-05T15:44:14;23.30;99.90
18597;DHT22;9428;50.950;6.912;2022-07-05T15:47:02;23.30;99.90
18597;DHT22;9428;50.950;6.912;2022-07-05T15:49:55;23.20;99.90
18597;DHT22;9428;50.950;6.912;2022-07-05T15:52:42;23.20;99.90
18597;DHT22;9428;50.950;6.912;2022-07-05T15:55:29;23.20;99.90
18597;DHT22;9428;50.950;6.912;2022-07-05T15:58:18;23.30;99.90
18597;DHT22;9428;50.950;6.912;2022-07-05T16:01:06;23.30;99.90
18597;DHT22;9428;50.950;6.912;2022-07-05T16:03:54;23.20;99.90
18597;DHT22;9428;50.950;6.912;2022-07-05T16:06:41;23.20;99.90
18597;DHT22;9428;50.950;6.912;2022-07-05T16:09:28;23.10;99.90
18597;DHT22;9428;50.950;6.912;2022-07-05T16:12:15;23.00;99.90
18597;DHT22;9428;50.950;6.912;2022-07-05T16:15:05;23.00;99.90
18597;DHT22;9428;50.950;6.912;2022-07-05T16:17:53;23.00;99.90
18597;DHT22;9428;50.950;6.912;2022-07-05T16:20:40;22.80;99.90
18597;DHT22;9428;50.950;6.912;2022-07-05T16:23:28;22.80;99.90
18597;DHT22;9428;50.950;6.912;2022-07-05T16:26:15;22.80;99.90
18597;DHT22;9428;50.950;6.912;2022-07-05T16:29:02;22.80;99.90
18597;DHT22;9428;50.950;6.912;2022-07-05T16:31:51;22.60;99.90
18597;DHT22;9428;50.950;6.912;2022-07-05T16:34:39;22.50;99.90
18597;DHT22;9428;50.950;6.912;2022-07-05T16:37:26;22.70;99.90
18597;DHT22;9428;50.950;6.912;2022-07-05T16:40:14;22.60;99.90
18597;DHT22;9428;50.950;6.912;2022-07-05T16:43:01;22.40;99.90
18597;DHT22;9428;50.950;6.912;2022-07-05T16:45:48;22.40;99.90
18597;DHT22;9428;50.950;6.912;2022-07-05T16:48:37;22.30;99.90
18597;DHT22;9428;50.950;6.912;2022-07-05T16:51:25;22.20;99.90
18597;DHT22;9428;50.950;6.912;2022-07-05T16:54:13;22.30;99.90
18597;DHT22;9428;50.950;6.912;2022-07-05T16:57:00;22.30;99.90
18597;DHT22;9428;50.950;6.912;2022-07-05T16:59:47;22.10;99.90
18597;DHT22;9428;50.950;6.912;2022-07-05T17:02:34;22.30;99.90
18597;DHT22;9428;50.950;6.912;2022-07-05T17:05:24;22.20;99.90
18597;DHT22;9428;50.950;6.912;2022-07-05T17:08:11;22.10;99.90
18597;DHT22;9428;50.950;6.912;2022-07-05T17:10:59;22.20;99.90
18597;DHT22;9428;50.950;6.912;2022-07-05T17:13:48;22.00;99.90
18597;DHT22;9428;50.950;6.912;2022-07-05T17:16:36;22.10;99.90
18597;DHT22;9428;50.950;6.912;2022-07-05T17:19:24;21.90;99.90
18597;DHT22;9428;50.950;6.912;2022-07-05T17:22:12;21.90;99.90
18597;DHT22;9428;50.950;6.912;2022-07-05T17:25:00;22.10;99.90
18597;DHT22;9428;50.950;6.912;2022-07-05T17:27:47;22.10;99.90
18597;DHT22;9428;50.950;6.912;2022-07-05T17:30:35;22.20;99.90
18597;DHT22;9428;50.950;6.912;2022-07-05T17:33:22;22.20;99.90
18597;DHT22;9428;50.950;6.912;2022-07-05T17:36:11;22.10;99.90
18597;DHT22;9428;50.950;6.912;2022-07-05T17:38:59;21.90;99.90
18597;DHT22;9428;50.950;6.912;2022-07-05T17:41:47;21.90;99.90
18597;DHT22;9428;50.950;6.912;2022-07-05T17:44:34;21.70;99.90
18597;DHT22;9428;50.950;6.912;2022-07-05T17:47:21;21.90;99.90
18597;DHT22;9428;50.950;6.912;2022-07-05T17:50:09;21.90;99.90
18597;DHT22;9428;50.950;6.912;2022-07-05T17:52:57;21.90;99.90
18597;DHT22;9428;50.950;6.912;2022-07-05T17:55:46;21.90;99.90
18597;DHT22;9428;50.950;6.912;2022-07-05T17:58:33;21.80;99.90
18597;DHT22;9428;50.950;6.912;2022-07-05T18:01:20;21.80;99.90